Time;durP1;ratioP1;P1;durP2;ratioP2;P2;SDS_P1;SDS_P2;PMS_P1;PMS_P2;Temp;Humidity;BMP_temperature;BMP_pressure;BME280_temperature;BME280_humidity;BME280_pressure;Samples;Min_cycle;Max_cycle;Signal;HPM_P1;HPM_P2
2022/02/11 00:09:08;;;;;;;2.60;2.40;;;;;;;18.69;45.01;97780.72;4859439;29;20245;-84
2022/02/11 00:11:37;;;;;;;2.97;2.60;;;;;;;18.78;45.11;97795.53;4872330;29;20374;-84
2022/02/11 00:14:04;;;;;;;2.80;2.60;;;;;;;18.78;45.22;97785.34;4863999;29;20235;-84
2022/02/11 00:16:32;;;;;;;2.90;2.53;;;;;;;18.69;45.36;97779.84;4854158;29;20235;-84
2022/02/11 00:18:59;;;;;;;2.87;2.67;;;;;;;18.69;44.74;97768.00;4835441;29;20299;-85
2022/02/11 00:21:29;;;;;;;2.77;2.57;;;;;;;18.56;45.14;97745.31;4850700;29;20228;-83
2022/02/11 00:23:56;;;;;;;3.30;2.63;;;;;;;18.77;45.19;97778.50;4866118;29;20251;-84
2022/02/11 00:26:28;;;;;;;2.60;2.40;;;;;;;18.39;45.25;97714.88;4854712;29;20295;-84
2022/02/11 00:34:13;;;;;;;2.90;2.70;;;;;;;18.84;44.89;97791.59;4872544;29;20234;-84
2022/02/11 00:36:51;;;;;;;3.00;2.80;;;;;;;18.72;45.33;97764.69;4871996;29;20677;-84
2022/02/11 01:03:59;;;;;;;2.50;2.30;;;;;;;18.72;45.37;97740.13;4840811;29;20608;-84
2022/02/11 01:06:21;;;;;;;2.53;2.33;;;;;;;18.73;45.32;97743.53;4850475;29;20675;-84
2022/02/11 01:08:47;;;;;;;2.80;2.60;;;;;;;18.73;44.69;97749.50;4863543;29;20701;-85
2022/02/11 01:27:58;;;;;;;2.60;2.40;;;;;;;14.74;45.13;97122.34;4921486;29;20185;-89
2022/02/11 01:50:25;;;;;;;2.80;2.60;;;;;;;16.63;45.01;97325.66;4878484;29;20687;-86
2022/02/11 02:00:36;;;;;;;3.03;2.83;;;;;;;17.71;45.30;97496.50;4874105;29;20242;-85
2022/02/11 02:59:29;;;;;;;2.47;2.27;;;;;;;17.00;45.27;97349.34;4877113;29;20241;-85
2022/02/11 04:55:01;;;;;;;2.90;2.70;;;;;;;18.64;45.29;97738.03;4876674;29;20257;-85
2022/02/11 05:00:14;;;;;;;2.50;2.30;;;;;;;18.88;45.65;97756.91;4859021;29;20716;-87
2022/02/11 05:02:42;;;;;;;2.97;2.50;;;;;;;18.36;45.39;97679.94;4849098;29;20311;-84
2022/02/11 05:05:09;;;;;;;2.90;2.60;;;;;;;18.33;45.49;97668.75;4867313;29;20256;-87
2022/02/11 05:07:36;;;;;;;2.63;2.23;;;;;;;18.88;45.73;97774.75;4872544;29;20721;-87
2022/02/11 05:10:04;;;;;;;2.80;2.60;;;;;;;18.67;45.64;97735.63;4848522;29;20294;-86
2022/02/11 05:12:31;;;;;;;3.20;2.83;;;;;;;18.18;45.58;97654.56;4859005;29;20757;-87
2022/02/11 05:14:57;;;;;;;3.07;2.70;;;;;;;16.97;45.70;97449.09;4847192;29;20235;-86
2022/02/11 05:17:24;;;;;;;3.00;2.70;;;;;;;17.61;45.16;97551.94;4848105;29;20235;-86
2022/02/11 05:19:50;;;;;;;2.63;2.40;;;;;;;17.32;45.18;97507.41;4863236;29;20235;-86
2022/02/11 05:22:17;;;;;;;4.70;2.40;;;;;;;17.86;45.44;97595.44;4848176;29;20223;-87
2022/02/11 05:24:44;;;;;;;3.00;2.70;;;;;;;18.12;45.59;97654.28;4848161;29;20262;-86
2022/02/11 05:27:10;;;;;;;2.80;2.60;;;;;;;17.53;45.52;97565.97;4863921;29;20299;-87
2022/02/11 05:29:37;;;;;;;2.80;2.60;;;;;;;17.91;45.51;97627.91;4872406;29;20242;-87
2022/02/11 05:32:04;;;;;;;2.60;2.40;;;;;;;17.37;45.54;97533.00;4862613;29;20266;-87
2022/02/11 05:34:31;;;;;;;2.63;2.43;;;;;;;18.63;45.49;97777.91;4846683;29;20321;-88
2022/02/11 05:36:57;;;;;;;2.93;2.73;;;;;;;17.93;45.27;97639.00;4849174;29;20233;-87
2022/02/11 05:39:24;;;;;;;3.43;3.13;;;;;;;18.42;45.26;97733.69;4845560;29;20294;-87
2022/02/11 05:41:51;;;;;;;3.20;2.63;;;;;;;17.94;45.41;97663.63;4840509;29;20226;-88
2022/02/11 05:44:18;;;;;;;3.00;2.70;;;;;;;18.86;45.41;97822.22;4839233;29;20235;-87
2022/02/11 05:46:44;;;;;;;2.73;2.53;;;;;;;17.93;45.50;97669.53;4853383;29;20214;-87
2022/02/11 05:49:12;;;;;;;3.37;2.67;;;;;;;18.23;45.71;97757.38;4873819;29;20211;-88
2022/02/11 05:51:39;;;;;;;2.70;2.50;;;;;;;16.68;45.77;97451.94;4849084;29;20227;-88
2022/02/11 05:54:06;;;;;;;2.60;2.40;;;;;;;17.66;45.74;97655.56;4830356;29;20254;-88
2022/02/11 05:56:33;;;;;;;2.70;2.50;;;;;;;17.14;45.78;97539.56;4861128;29;20219;-86
2022/02/11 05:58:59;;;;;;;2.87;2.63;;;;;;;17.13;45.62;97587.75;4860931;29;20212;-88
2022/02/11 06:01:30;;;;;;;3.50;2.70;;;;;;;17.08;45.92;97554.53;4860887;29;20698;-87
2022/02/11 06:03:57;;;;;;;3.53;2.87;;;;;;;17.06;45.81;97550.19;4845511;29;20641;-88
2022/02/11 06:06:24;;;;;;;3.23;2.63;;;;;;;17.26;45.58;97588.38;4872589;29;20271;-85
2022/02/11 06:08:50;;;;;;;3.17;2.80;;;;;;;18.76;45.77;97846.38;4848255;29;20263;-87
2022/02/11 06:11:19;;;;;;;3.93;2.63;;;;;;;17.72;45.82;97676.16;4848995;29;20263;-85
2022/02/11 06:13:46;;;;;;;4.63;2.87;;;;;;;18.92;45.58;97887.00;4860650;29;20239;-86
2022/02/11 06:16:13;;;;;;;4.53;2.70;;;;;;;18.33;45.58;97781.59;4875310;29;20234;-86
2022/02/11 06:18:40;;;;;;;3.90;2.50;;;;;;;18.53;45.84;97820.69;4875108;29;20314;-85
2022/02/11 06:21:06;;;;;;;5.27;2.50;;;;;;;18.27;45.55;97777.88;4860602;29;20953;-86
2022/02/11 06:23:33;;;;;;;2.97;2.70;;;;;;;17.82;45.81;97718.13;4878238;29;20231;-86
2022/02/11 06:26:00;;;;;;;3.70;2.60;;;;;;;18.27;46.00;97798.22;4844204;29;20282;-86
2022/02/11 06:28:26;;;;;;;3.10;2.73;;;;;;;18.04;45.81;97771.72;4860442;29;20210;-86
2022/02/11 06:30:53;;;;;;;3.47;2.80;;;;;;;18.36;45.94;97841.91;4847635;29;20289;-86
2022/02/11 06:33:20;;;;;;;3.27;2.77;;;;;;;17.20;45.79;97658.34;4862324;29;20717;-86
2022/02/11 06:35:47;;;;;;;2.93;2.37;;;;;;;17.65;45.67;97734.25;4878499;29;20290;-87
2022/02/11 06:38:13;;;;;;;3.37;2.50;;;;;;;18.33;46.00;97863.00;4847729;29;20752;-85
2022/02/11 06:40:40;;;;;;;2.87;2.67;;;;;;;18.16;46.05;97840.97;4862476;29;20271;-85
2022/02/11 06:43:07;;;;;;;2.97;2.73;;;;;;;17.78;45.50;97797.59;4860206;29;20222;-85
2022/02/11 06:45:33;;;;;;;3.10;2.43;;;;;;;18.65;45.38;97954.47;4868153;29;20318;-85
2022/02/11 06:48:00;;;;;;;3.50;2.90;;;;;;;18.56;45.37;97953.19;4861074;29;20239;-87
2022/02/11 06:50:27;;;;;;;3.67;2.90;;;;;;;18.49;45.27;97941.84;4846630;29;20685;-85
2022/02/11 06:52:56;;;;;;;3.57;2.90;;;;;;;17.17;44.78;97734.41;4846141;29;20262;-85
2022/02/11 06:55:23;;;;;;;2.80;2.60;;;;;;;18.29;44.42;97934.88;4885690;29;20302;-85
2022/02/11 06:57:51;;;;;;;2.70;2.50;;;;;;;17.15;44.48;97733.44;4844181;29;20243;-86
2022/02/11 07:00:18;;;;;;;4.83;2.70;;;;;;;17.65;44.22;97836.78;4862112;29;20678;-85
2022/02/11 07:02:44;;;;;;;2.80;2.40;;;;;;;18.29;43.81;97949.28;4864331;29;20754;-83
2022/02/11 07:05:11;;;;;;;2.50;2.30;;;;;;;18.91;43.52;98062.66;4844774;29;20231;-85
2022/02/11 07:07:38;;;;;;;2.67;2.10;;;;;;;18.54;43.49;98011.66;4861494;29;20274;-85
2022/02/11 07:10:05;;;;;;;3.20;2.03;;;;;;;18.91;42.75;98080.47;4845979;29;20258;-85
2022/02/11 07:12:32;;;;;;;2.30;2.10;;;;;;;18.09;42.81;97949.16;4877969;29;20650;-85
2022/02/11 07:14:58;;;;;;;2.33;1.90;;;;;;;18.74;42.84;98072.03;4889951;23;20357;-83
2022/02/11 07:17:25;;;;;;;1.90;1.80;;;;;;;18.69;42.49;98064.97;4873005;29;20529;-86
2022/02/11 07:19:51;;;;;;;1.93;1.73;;;;;;;18.65;42.35;98075.81;4874887;29;20290;-84
2022/02/11 07:22:18;;;;;;;1.73;1.63;;;;;;;18.65;42.25;98081.75;4877785;29;20254;-83
2022/02/11 07:24:44;;;;;;;1.80;1.70;;;;;;;18.61;42.50;98078.97;4875101;29;20311;-83
2022/02/11 07:27:12;;;;;;;1.73;1.57;;;;;;;18.78;42.67;98118.88;4869176;29;20234;-83
2022/02/11 07:29:38;;;;;;;1.77;1.67;;;;;;;18.55;42.65;98092.28;4873075;29;20246;-85
2022/02/11 07:32:05;;;;;;;2.10;1.90;;;;;;;18.83;43.33;98153.09;4874791;29;20310;-85
2022/02/11 07:34:32;;;;;;;1.67;1.57;;;;;;;18.57;43.32;98112.72;4861324;29;20330;-84
2022/02/11 07:36:59;;;;;;;2.00;1.90;;;;;;;18.50;43.48;98111.53;4861377;29;20301;-85
2022/02/11 07:39:49;;;;;;;1.70;1.60;;;;;;;18.79;43.45;98161.38;4886025;29;20600;-84
2022/02/11 07:42:15;;;;;;;2.60;1.93;;;;;;;18.75;43.73;98159.47;4884197;29;20238;-84
2022/02/11 07:44:42;;;;;;;2.17;2.00;;;;;;;18.61;43.72;98142.63;4877803;29;20226;-85
2022/02/11 07:47:08;;;;;;;3.13;2.03;;;;;;;18.54;44.19;98135.50;4857698;29;20521;-83
2022/02/11 07:49:36;;;;;;;1.80;1.70;;;;;;;18.64;43.89;98164.03;4866657;29;20306;-83
2022/02/11 07:52:04;;;;;;;2.07;1.97;;;;;;;18.73;44.48;98182.31;4860977;29;20766;-84
2022/02/11 07:54:31;;;;;;;2.67;1.93;;;;;;;18.84;44.29;98214.31;4878401;29;20233;-84
2022/02/11 07:56:57;;;;;;;2.90;1.90;;;;;;;18.67;44.21;98187.09;4865087;29;20744;-84
2022/02/11 07:59:24;;;;;;;1.83;1.73;;;;;;;18.69;44.25;98202.44;4879038;29;20251;-84
2022/02/11 08:01:52;;;;;;;2.00;1.90;;;;;;;18.61;44.19;98206.28;4881570;29;20226;-84
2022/02/11 08:04:18;;;;;;;2.27;1.87;;;;;;;18.62;44.26;98216.53;4880764;29;20222;-83
2022/02/11 08:06:48;;;;;;;1.70;1.60;;;;;;;18.74;44.36;98247.72;4866122;29;20294;-84
2022/02/11 08:09:16;;;;;;;1.90;1.80;;;;;;;18.56;44.77;98221.31;4880908;29;20222;-85
2022/02/11 08:11:42;;;;;;;2.27;1.80;;;;;;;18.68;44.48;98241.44;4865496;29;20203;-86
2022/02/11 08:14:09;;;;;;;2.20;1.83;;;;;;;18.65;44.51;98242.16;4897500;29;20326;-84
2022/02/11 08:16:35;;;;;;;3.93;2.00;;;;;;;18.61;44.55;98242.78;4893104;29;20861;-84
2022/02/11 08:19:02;;;;;;;1.80;1.70;;;;;;;18.60;44.68;98245.25;4866304;29;20811;-84
2022/02/11 08:21:28;;;;;;;2.13;1.80;;;;;;;18.77;44.75;98285.22;4864963;29;20213;-84
2022/02/11 08:23:56;;;;;;;1.60;1.50;;;;;;;18.70;45.04;98275.47;4868796;29;20222;-85
2022/02/11 08:26:22;;;;;;;1.80;1.70;;;;;;;18.61;44.89;98268.25;4879904;29;20664;-83
2022/02/11 08:28:51;;;;;;;1.77;1.67;;;;;;;18.66;44.76;98286.31;4878748;29;20297;-83
2022/02/11 08:31:18;;;;;;;1.63;1.53;;;;;;;18.67;45.01;98314.41;4874497;29;20745;-85
2022/02/11 08:33:49;;;;;;;2.20;1.80;;;;;;;18.68;44.76;98313.59;4881833;29;20617;-84
2022/02/11 08:36:15;;;;;;;1.80;1.70;;;;;;;18.08;44.90;98224.66;4866705;29;20245;-83
2022/02/11 08:38:42;;;;;;;1.70;1.60;;;;;;;18.68;44.85;98336.50;4895008;29;20238;-84
2022/02/11 08:41:09;;;;;;;1.97;1.80;;;;;;;18.08;45.07;98237.38;4875631;29;20673;-85
2022/02/11 08:43:35;;;;;;;1.90;1.73;;;;;;;18.62;45.08;98341.28;4880200;29;20226;-83
2022/02/11 08:46:03;;;;;;;1.97;1.87;;;;;;;18.72;44.64;98355.38;4879883;29;20233;-84
2022/02/11 08:48:30;;;;;;;1.80;1.70;;;;;;;18.72;44.87;98347.75;4864703;29;20290;-84
2022/02/11 08:50:57;;;;;;;1.50;1.40;;;;;;;18.73;44.97;98359.66;4879875;29;20799;-85
2022/02/11 08:53:31;;;;;;;1.70;1.60;;;;;;;18.77;44.80;98374.34;4880784;29;20203;-83
2022/02/11 08:56:03;;;;;;;1.77;1.60;;;;;;;18.69;44.83;98366.28;4876354;29;20751;-84
2022/02/11 08:58:29;;;;;;;1.60;1.50;;;;;;;18.86;45.11;98390.97;4875432;29;20235;-86
2022/02/11 09:00:56;;;;;;;1.80;1.70;;;;;;;18.72;45.03;98388.47;4881892;29;20290;-84
2022/02/11 09:03:24;;;;;;;1.53;1.43;;;;;;;18.48;44.81;98341.34;4879444;29;20245;-85
2022/02/11 09:05:51;;;;;;;1.80;1.70;;;;;;;18.51;45.26;98354.22;4865464;29;20765;-83
2022/02/11 09:08:18;;;;;;;1.77;1.67;;;;;;;18.77;45.19;98395.56;4877269;29;20684;-85
2022/02/11 09:10:48;;;;;;;1.63;1.53;;;;;;;18.51;45.29;98346.59;4876935;29;20713;-84
2022/02/11 09:13:15;;;;;;;1.70;1.60;;;;;;;18.67;44.96;98382.25;4862311;29;20187;-84
2022/02/11 09:15:41;;;;;;;1.60;1.50;;;;;;;18.76;45.19;98411.66;4877056;29;20709;-84
2022/02/11 09:18:08;;;;;;;1.60;1.50;;;;;;;18.69;44.99;98401.03;4893312;29;20282;-85
2022/02/11 09:20:35;;;;;;;2.33;1.50;;;;;;;18.85;45.35;98431.63;4862096;29;20221;-84
2022/02/11 09:23:03;;;;;;;1.57;1.47;;;;;;;18.59;45.24;98388.63;4876937;29;20226;-84
2022/02/11 09:25:31;;;;;;;1.50;1.40;;;;;;;18.71;45.38;98422.38;4877903;29;20310;-84
2022/02/11 09:27:58;;;;;;;1.60;1.50;;;;;;;18.62;45.25;98415.09;4892474;29;20298;-83
2022/02/11 09:30:25;;;;;;;1.80;1.70;;;;;;;18.76;45.39;98432.00;4891501;29;20199;-84
2022/02/11 09:32:52;;;;;;;1.60;1.50;;;;;;;18.66;45.22;98427.22;4860002;29;20286;-83
2022/02/11 09:35:20;;;;;;;1.60;1.50;;;;;;;18.59;45.02;98422.56;4876574;29;20219;-83
2022/02/11 09:37:49;;;;;;;1.67;1.57;;;;;;;18.75;45.34;98454.84;4863153;29;20218;-83
2022/02/11 09:40:16;;;;;;;1.63;1.53;;;;;;;18.61;45.10;98428.63;4864759;29;20242;-83
2022/02/11 09:42:43;;;;;;;1.77;1.60;;;;;;;18.75;45.54;98465.03;4884353;29;20266;-83
2022/02/11 09:45:10;;;;;;;1.40;1.30;;;;;;;18.84;45.50;98489.34;4861941;29;20254;-84
2022/02/11 09:47:37;;;;;;;1.60;1.50;;;;;;;18.61;45.27;98446.47;4875273;29;20673;-84
2022/02/11 09:50:06;;;;;;;1.70;1.60;;;;;;;18.61;45.17;98455.75;4864914;29;20198;-84
2022/02/11 09:52:47;;;;;;;1.70;1.60;;;;;;;18.72;45.46;98475.94;4876740;29;20193;-85
2022/02/11 09:55:32;;;;;;;1.60;1.50;;;;;;;18.40;45.15;98426.56;4867918;29;20697;-84
2022/02/11 09:57:58;;;;;;;1.50;1.40;;;;;;;18.85;45.21;98506.38;4861160;29;20207;-84
2022/02/11 10:00:25;;;;;;;1.83;1.60;;;;;;;18.27;45.21;98420.75;4872680;29;21094;-83
2022/02/11 10:02:54;;;;;;;1.37;1.27;;;;;;;18.83;45.46;98519.81;4878467;29;20233;-84
2022/02/11 10:05:40;;;;;;;1.50;1.40;;;;;;;18.84;45.34;98525.00;4859094;29;20596;-85
2022/02/11 10:08:06;;;;;;;1.60;1.50;;;;;;;18.58;45.29;98491.22;4860763;29;20191;-85
2022/02/11 10:10:38;;;;;;;1.60;1.50;;;;;;;18.63;45.57;98492.38;4892001;29;20290;-84
2022/02/11 10:13:09;;;;;;;1.60;1.50;;;;;;;18.84;45.36;98540.28;4893162;29;20210;-85
2022/02/11 10:15:38;;;;;;;1.70;1.60;;;;;;;18.67;45.85;98501.91;4870887;29;20322;-84
2022/02/11 10:18:08;;;;;;;1.53;1.43;;;;;;;18.69;45.19;98523.25;4875937;29;20207;-85
2022/02/11 10:20:39;;;;;;;1.40;1.30;;;;;;;18.70;45.42;98525.00;4876803;29;20199;-83
2022/02/11 10:23:23;;;;;;;1.43;1.33;;;;;;;18.82;45.21;98544.41;4866644;29;20247;-85
2022/02/11 10:26:22;;;;;;;1.50;1.40;;;;;;;18.70;45.22;98525.91;4876192;29;21062;-84
2022/02/11 10:28:53;;;;;;;1.67;1.57;;;;;;;18.58;45.26;98502.28;4876226;29;20231;-84
2022/02/11 10:31:23;;;;;;;1.30;1.20;;;;;;;18.60;45.29;98505.81;4876713;29;20654;-85
2022/02/11 10:34:14;;;;;;;1.50;1.40;;;;;;;18.68;45.56;98529.16;4861723;29;20258;-84
2022/02/11 10:36:49;;;;;;;1.60;1.50;;;;;;;18.73;45.55;98537.91;4876735;29;20210;-85
2022/02/11 10:39:25;;;;;;;1.40;1.30;;;;;;;18.66;45.37;98530.72;4856674;29;20263;-85
2022/02/11 10:41:55;;;;;;;1.60;1.50;;;;;;;18.75;45.47;98552.50;4875836;29;20277;-85
2022/02/11 10:44:30;;;;;;;1.77;1.67;;;;;;;18.66;45.30;98523.09;4873215;29;20318;-85
2022/02/11 10:47:16;;;;;;;1.43;1.33;;;;;;;18.66;45.43;98525.63;4875807;29;20206;-85
2022/02/11 10:49:45;;;;;;;1.40;1.30;;;;;;;18.64;45.68;98520.47;4861273;29;20942;-84
2022/02/11 10:52:13;;;;;;;2.07;1.60;;;;;;;18.59;45.44;98505.72;4875856;29;20294;-85
2022/02/11 10:54:41;;;;;;;1.37;1.30;;;;;;;18.57;45.68;98502.22;4860224;29;20286;-86
2022/02/11 10:57:09;;;;;;;1.87;1.60;;;;;;;18.74;45.55;98534.59;4872590;29;20287;-85
2022/02/11 10:59:37;;;;;;;1.23;1.13;;;;;;;18.71;45.35;98525.09;4859813;29;20207;-85
2022/02/11 11:02:08;;;;;;;1.33;1.23;;;;;;;18.69;45.49;98529.25;4859713;29;20670;-85
2022/02/11 11:04:35;;;;;;;1.47;1.37;;;;;;;18.59;45.34;98506.59;4860836;29;20258;-85
2022/02/11 11:07:04;;;;;;;2.03;1.30;;;;;;;18.47;45.61;98477.03;4868089;29;20226;-86
2022/02/11 11:09:30;;;;;;;1.40;1.30;;;;;;;18.62;45.05;98501.66;4875334;29;20203;-84
2022/02/11 11:12:00;;;;;;;1.40;1.30;;;;;;;18.50;45.53;98484.84;4872532;29;20747;-85
2022/02/11 11:14:29;;;;;;;1.57;1.47;;;;;;;18.55;45.13;98485.97;4868370;29;20231;-83
2022/02/11 11:17:00;;;;;;;1.77;1.30;;;;;;;18.60;45.57;98500.72;4859702;29;20199;-84
2022/02/11 11:19:30;;;;;;;1.50;1.40;;;;;;;18.81;45.34;98521.41;4860661;29;20672;-83
2022/02/11 11:22:15;;;;;;;1.50;1.40;;;;;;;18.73;45.46;98517.53;4875223;29;20287;-84
2022/02/11 11:24:51;;;;;;;1.40;1.30;;;;;;;18.81;45.44;98514.66;4862044;29;20266;-86
2022/02/11 11:27:40;;;;;;;1.60;1.50;;;;;;;18.80;45.63;98517.09;4887748;29;20286;-84
2022/02/11 11:30:32;;;;;;;1.43;1.33;;;;;;;18.80;45.63;98530.69;4869161;29;20195;-85
2022/02/11 11:33:05;;;;;;;1.40;1.30;;;;;;;18.81;45.42;98535.03;4888975;29;20681;-85
2022/02/11 11:36:03;;;;;;;1.87;1.53;;;;;;;18.55;45.48;98491.94;4873299;29;20223;-83
2022/02/11 11:38:43;;;;;;;1.43;1.33;;;;;;;18.60;45.52;98510.91;4873493;29;21040;-83
2022/02/11 11:41:17;;;;;;;1.40;1.30;;;;;;;18.81;45.84;98550.31;4855975;29;20354;-84
2022/02/11 11:44:19;;;;;;;1.30;1.20;;;;;;;18.80;45.46;98545.13;4872604;29;20243;-83
2022/02/11 11:46:50;;;;;;;1.50;1.40;;;;;;;18.18;45.72;98438.06;4870376;29;20230;-84
2022/02/11 11:49:18;;;;;;;1.37;1.27;;;;;;;18.67;45.59;98519.75;4860001;29;20680;-85
2022/02/11 11:51:44;;;;;;;1.47;1.37;;;;;;;18.79;45.51;98551.88;4875571;29;20251;-85
2022/02/11 11:54:23;;;;;;;1.50;1.40;;;;;;;18.80;45.43;98551.06;4875649;29;20263;-84
2022/02/11 11:56:52;;;;;;;1.50;1.40;;;;;;;18.79;45.65;98551.88;4876050;29;20214;-83
2022/02/11 11:59:26;;;;;;;1.40;1.30;;;;;;;18.81;45.44;98542.66;4857504;29;20211;-83
2022/02/11 12:01:56;;;;;;;1.60;1.40;;;;;;;18.40;45.78;98486.00;4855864;29;20248;-84
2022/02/11 12:04:49;;;;;;;1.40;1.30;;;;;;;18.67;45.64;98533.38;4885929;29;20314;-84
2022/02/11 12:07:20;;;;;;;1.60;1.50;;;;;;;18.68;45.47;98536.81;4874484;29;20320;-86
2022/02/11 12:09:49;;;;;;;1.20;1.20;;;;;;;18.65;45.49;98532.38;4859192;29;20297;-84
2022/02/11 12:12:20;;;;;;;1.40;1.30;;;;;;;18.23;45.54;98458.66;4858314;29;20207;-84
2022/02/11 12:14:49;;;;;;;1.50;1.40;;;;;;;18.60;45.70;98526.19;4868009;29;20306;-84
2022/02/11 12:17:17;;;;;;;1.40;1.30;;;;;;;18.71;45.46;98552.25;4872244;29;20217;-85
2022/02/11 12:19:44;;;;;;;1.43;1.33;;;;;;;18.53;45.60;98518.97;4858188;29;20230;-84
2022/02/11 12:22:11;;;;;;;1.50;1.40;;;;;;;18.75;45.71;98559.25;4858772;29;20725;-84
2022/02/11 12:27:25;;;;;;;5.20;2.70;;;;;;;18.71;40.60;98558.19;4878704;29;20234;-82
2022/02/11 12:30:05;;;;;;;6.23;2.30;;;;;;;18.64;38.96;98553.56;4871663;29;20227;-84
2022/02/11 12:32:45;;;;;;;9.00;2.87;;;;;;;18.71;39.55;98555.66;4870691;29;21620;-83
2022/02/11 12:35:14;;;;;;;5.20;2.50;;;;;;;18.56;40.11;98531.88;4872685;29;20346;-84
2022/02/11 12:37:42;;;;;;;3.03;2.10;;;;;;;18.60;40.38;98554.19;4890709;29;20202;-83
2022/02/11 12:40:13;;;;;;;4.83;2.60;;;;;;;18.57;40.98;98545.50;4856556;29;20237;-84
2022/02/11 13:17:40;;;;;;;4.33;2.20;;;;;;;18.59;42.99;98551.56;5887399;23;21253;-84
2022/02/11 13:20:12;;;;;;;3.40;1.90;;;;;;;18.66;42.99;98566.38;4848060;29;20270;-85
2022/02/11 13:22:40;;;;;;;2.63;2.00;;;;;;;18.61;43.00;98558.47;4859313;29;20243;-86
2022/02/11 13:25:09;;;;;;;2.80;1.60;;;;;;;18.54;42.79;98540.22;4873141;29;20333;-85
2022/02/11 13:49:13;;;;;;;3.17;1.77;;;;;;;18.87;43.52;98585.41;5496909;23;20260;-84
2022/02/11 13:51:40;;;;;;;2.97;1.83;;;;;;;18.78;43.38;98567.97;4899872;29;20229;-85
2022/02/11 13:54:14;;;;;;;2.23;1.60;;;;;;;18.92;43.65;98592.50;4883268;29;20277;-85
2022/02/11 13:56:48;;;;;;;2.00;1.60;;;;;;;18.43;43.47;98503.09;4906294;29;20206;-85
2022/02/11 13:59:25;;;;;;;1.97;1.57;;;;;;;18.54;43.50;98514.75;4898807;29;20229;-85
2022/02/11 14:01:52;;;;;;;2.23;1.63;;;;;;;18.80;43.44;98558.72;4902363;29;20241;-84
2022/02/11 14:04:22;;;;;;;2.07;1.73;;;;;;;18.81;43.69;98563.03;4885469;29;20312;-85
2022/02/11 14:06:51;;;;;;;1.60;1.50;;;;;;;18.85;43.33;98570.03;4880830;29;20206;-84
2022/02/11 14:09:39;;;;;;;1.73;1.60;;;;;;;18.97;43.45;98585.13;4881108;29;20372;-85
2022/02/11 14:12:12;;;;;;;2.30;1.67;;;;;;;19.09;43.34;98613.84;4881406;29;20229;-84
2022/02/11 14:14:52;;;;;;;1.70;1.50;;;;;;;18.97;43.48;98595.31;4910642;29;20304;-84
2022/02/11 14:17:19;;;;;;;1.77;1.40;;;;;;;18.94;43.64;98600.25;4879077;29;20724;-84
2022/02/11 14:19:46;;;;;;;1.40;1.30;;;;;;;18.95;43.59;98605.41;4876530;29;20234;-84
2022/02/11 14:22:16;;;;;;;1.83;1.63;;;;;;;18.96;43.75;98608.84;4895023;29;21014;-84
2022/02/11 14:24:44;;;;;;;1.63;1.53;;;;;;;18.57;43.61;98541.28;4880938;29;20308;-84
2022/02/11 14:27:10;;;;;;;2.27;1.47;;;;;;;18.90;43.48;98599.22;4890799;29;20240;-84
2022/02/11 14:29:37;;;;;;;1.50;1.40;;;;;;;19.01;43.60;98622.75;4889805;29;20285;-84
2022/02/11 14:32:04;;;;;;;1.90;1.70;;;;;;;18.95;43.55;98624.94;4890901;29;20288;-84
2022/02/11 14:34:31;;;;;;;1.93;1.70;;;;;;;18.96;43.35;98625.03;4882420;29;20337;-85
2022/02/11 14:36:58;;;;;;;2.53;1.70;;;;;;;18.85;43.45;98607.38;4875566;29;20201;-84
2022/02/11 14:39:25;;;;;;;2.37;1.60;;;;;;;18.80;43.76;98599.47;4894764;29;20201;-85
2022/02/11 14:41:54;;;;;;;2.63;1.77;;;;;;;18.59;43.58;98566.84;4904059;29;20266;-84
2022/02/11 14:44:34;;;;;;;2.00;1.43;;;;;;;18.57;43.46;98561.66;4881914;29;20311;-84
2022/02/11 14:47:02;;;;;;;1.57;1.47;;;;;;;18.99;43.53;98637.94;4877450;29;20581;-86
2022/02/11 14:49:29;;;;;;;1.60;1.50;;;;;;;19.13;43.62;98667.59;4908835;29;20296;-85
2022/02/11 14:52:03;;;;;;;2.87;1.90;;;;;;;18.80;43.70;98607.09;4891826;29;20265;-85
2022/02/11 14:54:34;;;;;;;1.80;1.60;;;;;;;18.88;43.85;98621.16;4879919;29;20309;-85
2022/02/11 14:57:02;;;;;;;1.97;1.67;;;;;;;18.46;43.87;98555.06;4878632;29;20672;-84
2022/02/11 14:59:28;;;;;;;3.93;1.53;;;;;;;19.12;43.32;98676.06;4895465;29;20751;-84
2022/02/11 15:01:55;;;;;;;1.70;1.60;;;;;;;18.89;43.75;98643.28;4895465;29;20234;-86
2022/02/11 15:04:22;;;;;;;2.37;1.53;;;;;;;18.95;43.82;98646.19;4875961;29;20226;-85
2022/02/11 15:06:53;;;;;;;1.53;1.43;;;;;;;18.96;43.92;98657.25;4878437;29;20213;-86
2022/02/11 15:09:20;;;;;;;2.83;1.60;;;;;;;18.97;43.78;98651.34;4910561;29;20209;-85
2022/02/11 15:11:47;;;;;;;1.53;1.40;;;;;;;18.77;43.83;98618.81;4874469;29;20237;-84
2022/02/11 15:14:21;;;;;;;2.47;1.70;;;;;;;18.95;43.14;98653.81;4863747;29;20236;-86
2022/02/11 15:16:48;;;;;;;1.47;1.37;;;;;;;18.90;43.67;98646.72;4884293;29;21044;-86
2022/02/11 15:19:15;;;;;;;3.17;1.80;;;;;;;18.86;43.86;98643.09;4878722;29;20210;-85
2022/02/11 15:21:42;;;;;;;3.30;1.40;;;;;;;18.94;43.71;98657.16;4896087;29;20233;-85
2022/02/11 15:24:11;;;;;;;1.60;1.50;;;;;;;18.80;43.36;98635.13;4882243;29;20226;-87
2022/02/11 15:26:37;;;;;;;1.37;1.23;;;;;;;19.02;43.79;98671.22;4878642;29;20210;-86
2022/02/11 15:29:04;;;;;;;2.10;1.70;;;;;;;18.79;43.70;98632.47;4890363;29;20293;-85
2022/02/11 15:31:31;;;;;;;1.97;1.33;;;;;;;18.89;43.94;98652.63;4892990;29;20233;-86
2022/02/11 15:33:58;;;;;;;1.50;1.40;;;;;;;19.09;43.62;98670.78;4877372;29;20229;-87
2022/02/11 15:36:24;;;;;;;2.27;1.70;;;;;;;18.90;43.88;98645.06;4893270;29;20343;-86
2022/02/11 15:38:51;;;;;;;2.07;1.70;;;;;;;18.85;43.77;98635.38;4872407;29;20201;-86
2022/02/11 15:41:17;;;;;;;1.93;1.77;;;;;;;18.91;43.97;98649.34;4896263;29;20206;-84
2022/02/11 15:43:44;;;;;;;1.57;1.47;;;;;;;18.90;44.08;98644.16;4880298;29;20313;-85
2022/02/11 15:46:11;;;;;;;1.90;1.60;;;;;;;18.88;43.71;98653.38;4878283;29;20254;-86
2022/02/11 15:48:41;;;;;;;2.73;1.70;;;;;;;18.85;43.29;98645.56;4863132;29;20698;-86
2022/02/11 15:51:08;;;;;;;5.67;1.90;;;;;;;18.86;41.52;98649.88;4877982;29;20266;-86
2022/02/11 15:53:35;;;;;;;7.17;2.20;;;;;;;18.98;40.59;98683.72;4873074;29;20202;-86
2022/02/11 15:56:02;;;;;;;5.07;2.43;;;;;;;18.90;39.00;98677.28;4881286;29;20249;-87
2022/02/11 15:58:29;;;;;;;4.57;2.30;;;;;;;18.93;38.38;98687.66;4863524;29;20242;-84
2022/02/11 16:00:56;;;;;;;6.90;2.53;;;;;;;18.71;38.70;98657.50;4901543;29;20297;-87
2022/02/11 16:03:26;;;;;;;5.67;2.10;;;;;;;18.91;38.73;98697.75;4876885;29;20244;-86
2022/02/11 16:05:56;;;;;;;4.53;2.00;;;;;;;18.72;39.17;98668.59;4886550;29;20317;-87
2022/02/11 16:08:23;;;;;;;4.67;2.63;;;;;;;18.92;39.59;98711.38;4895877;29;20285;-85
2022/02/11 16:10:50;;;;;;;3.67;2.30;;;;;;;18.80;40.29;98697.94;4882249;29;20320;-85
2022/02/11 16:13:18;;;;;;;4.60;1.90;;;;;;;18.67;39.78;98685.25;4883802;29;20241;-85
2022/02/11 16:15:45;;;;;;;4.27;1.90;;;;;;;18.76;40.57;98714.69;4897145;29;20254;-84
2022/02/11 16:18:15;;;;;;;2.30;1.80;;;;;;;18.79;40.92;98711.44;4898914;29;20365;-85
2022/02/11 16:20:46;;;;;;;3.37;1.90;;;;;;;18.75;41.31;98701.88;4887485;29;20728;-85
2022/02/11 16:23:14;;;;;;;4.37;1.93;;;;;;;18.65;41.30;98679.22;4872133;29;20300;-85
2022/02/11 16:25:41;;;;;;;2.43;1.90;;;;;;;18.90;41.36;98725.69;4895103;29;20261;-86
2022/02/11 16:28:09;;;;;;;4.00;2.00;;;;;;;18.85;41.80;98711.78;4897360;29;20220;-86
2022/02/11 16:30:36;;;;;;;6.37;2.03;;;;;;;18.54;41.84;98659.88;4887370;29;20720;-86
2022/02/11 16:33:04;;;;;;;3.30;2.00;;;;;;;18.74;42.13;98711.16;4888337;29;20244;-86
2022/02/11 16:35:34;;;;;;;3.77;2.00;;;;;;;18.80;42.19;98720.84;4892379;29;20253;-86
2022/02/11 16:38:01;;;;;;;2.60;1.73;;;;;;;18.86;42.11;98727.16;4887910;29;20234;-86
2022/02/11 16:40:29;;;;;;;4.00;1.80;;;;;;;18.90;42.07;98744.41;4885187;29;20289;-86
2022/02/11 16:42:55;;;;;;;2.30;1.80;;;;;;;18.82;42.21;98737.06;4867702;29;20237;-86
2022/02/11 16:45:22;;;;;;;3.10;1.70;;;;;;;18.94;42.57;98766.72;4881769;29;20569;-85
2022/02/11 16:47:48;;;;;;;3.00;1.83;;;;;;;18.82;43.25;98753.25;4895836;29;20756;-84
2022/02/11 16:50:15;;;;;;;3.83;2.07;;;;;;;18.83;42.60;98756.69;4869549;29;20223;-86
2022/02/11 16:52:42;;;;;;;2.77;1.80;;;;;;;18.92;42.66;98775.06;4882607;29;20310;-85
2022/02/11 16:55:09;;;;;;;2.63;1.70;;;;;;;18.79;42.72;98754.72;4871286;29;20261;-85
2022/02/11 17:24:35;;;;;;;1.90;1.70;;;;;;;19.07;43.41;98832.03;5873363;23;21276;-87